Shijiazhuang Daguocun International Airport
ZBSJ : now visible

Airfield :











YOU CAN JOIN US ON...

 
LOGIN :

Register | Disclaimer

   EN    FR    IT 

 









Legend :    VFR   Marginal VFR   IFR   Intensive IFR   Very Intensive IFR
Visi :
Ceiling :
>= 8 km
>= 3000ft
5 to 8 km
1000 to 3000 ft
1500m to 5 km
500 to 1000 ft
800 to 1500m
200 to 500 ft
< 800m
< 200 ft
Symbols :   Thunderstorms  Fog  Heavy snow  Heavy precipitations  Wind > 20 kt






- Airport Elevation : 233 ft
- IATA code : SJW


ZBSJ - Shijiazhuang Daguocun International

CURRENT METAR :
  • 270000Z 00000MPS 1500 BR NSC 17/16 Q1019 BECMG TL0040 3500

EXPIRED METARs :
  • 262300Z VRB01MPS 1500 BR NSC 15/15 Q1019 NOSIG
  • 262200Z VRB01MPS 2700 BR NSC 14/13 Q1018 NOSIG

TAF TAF ZBSJ
Valid from the 27 at 00:00 until the 28 at 00:00 UTC


262107Z 2700/2724 18003MPS 2000 HZ NSC TX26/2707Z TN14/2721Z
BECMG 2701/2702 3000
ZBPE FIR / Asia



MET'MAP, your aeronautical weather chart ! - Copyright ORBIFLY December 2007 - Disclaimer

ORBIFLY MET'MAP TEAM :

Programming & Development : Alexandra Zaïnal
Concept & original design : Baudouin d'Aumeries
Assistance for programming : Marc-Olivier Méhu
Technical & hardware support : Manuel Goepfert

Contact : metmap@orbifly.com




SOURCES & CREDITS :

   NOAA       Earth
Advisory